EST,Max TemperatureF,Mean TemperatureF,Min TemperatureF,Max Dew PointF,MeanDew PointF,Min DewpointF,Max Humidity, Mean Humidity, Min Humidity, Max Sea Level PressureIn, Mean Sea Level PressureIn, Min Sea Level PressureIn, Max VisibilityMiles, Mean VisibilityMiles, Min VisibilityMiles, Max Wind SpeedMPH, Mean Wind SpeedMPH, Max Gust SpeedMPH,PrecipitationIn, CloudCover, Events, WindDirDegrees
2013-2-1,64,47,30,45,36,28,100,73,27,30.39,30.31,30.26,10,10,10,12,2,,0.00,0,,301
2013-2-2,68,50,32,43,36,30,100,69,26,30.36,30.27,30.19,10,10,10,12,2,,0.00,0,,332
2013-2-3,68,50,32,52,40,32,100,77,43,30.22,30.16,30.10,10,10,10,12,2,16,0.00,0,,280
2013-2-4,66,49,32,45,35,32,100,68,28,30.15,30.11,30.08,10,10,10,9,1,,0.00,0,,282
2013-2-5,73,52,32,52,43,32,100,70,37,30.11,30.06,30.03,10,10,10,12,1,16,0.00,2,,236
2013-2-6,73,65,57,61,55,52,88,72,53,30.15,30.08,30.04,10,10,10,7,1,,0.00,8,,90
2013-2-7,78,68,59,64,61,54,100,81,42,30.08,29.97,29.88,10,10,7,12,4,20,0.09,3,Rain,176
2013-2-8,68,60,50,64,57,50,100,86,68,30.11,30.01,29.91,10,9,3,14,7,20,0.00,4,,271
2013-2-9,73,60,46,50,48,45,100,71,38,30.23,30.17,30.10,10,9,0,12,4,16,0.00,1,Fog,66
2013-2-10,78,64,51,55,52,46,88,63,42,30.27,30.20,30.15,10,10,10,13,6,20,0.00,3,,107
2013-2-11,80,68,55,64,60,54,94,75,48,30.21,30.15,30.10,10,10,2,13,3,21,0.00,1,,196
2013-2-12,80,70,59,68,64,55,100,84,54,30.10,30.02,29.93,10,7,0,13,3,20,0.00,5,Fog,206
2013-2-13,73,66,60,68,65,59,100,91,83,29.99,29.92,29.86,10,7,2,12,6,22,0.53,8,Rain-Thunderstorm,228
2013-2-14,62,56,51,59,53,50,100,87,72,30.10,30.02,29.95,10,10,7,8,2,,0.14,7,Rain,3
2013-2-15,64,53,42,50,45,41,100,77,42,30.12,30.04,29.98,10,10,5,8,3,,0.00,1,,360
2013-2-16,60,50,41,50,38,19,100,67,35,30.19,30.02,29.97,10,10,5,20,4,32,0.00,3,Rain,299
2013-2-17,51,42,32,30,20,5,93,47,15,30.38,30.30,30.19,10,10,10,12,6,18,0.00,0,,333
2013-2-18,68,48,28,41,30,16,93,59,22,30.40,30.32,30.23,10,10,10,12,2,16,0.00,0,,102
2013-2-19,75,58,41,61,49,37,93,68,36,30.25,30.15,30.09,10,10,7,12,3,23,0.01,1,Rain,209
2013-2-20,73,62,50,61,49,36,100,67,37,30.17,30.11,30.06,10,10,7,13,4,16,0.00,3,,9
2013-2-21,80,63,46,59,52,45,93,71,44,30.14,30.07,30.00,10,10,10,9,2,,0.00,1,,119
2013-2-22,84,72,59,64,61,55,100,77,48,30.08,30.04,30.00,10,10,7,15,2,18,0.00,2,,203
2013-2-23,78,71,64,68,67,63,100,87,69,30.01,29.96,29.91,10,9,5,13,3,22,0.00,7,,213
2013-2-24,77,72,68,70,65,63,100,83,61,29.98,29.93,29.88,10,8,2,9,4,,0.00,6,Rain,231
2013-2-25,84,74,64,68,63,59,100,75,42,29.92,29.84,29.79,10,9,2,9,4,,0.00,5,,137
2013-2-26,71,66,62,70,62,57,100,82,68,29.89,29.79,29.69,10,9,2,15,5,26,0.78,6,Rain-Thunderstorm,224
2013-2-27,66,60,55,55,48,41,77,63,45,30.01,29.95,29.88,10,10,10,15,9,23,0.00,2,,290
2013-2-28,68,56,44,52,47,43,100,66,49,30.02,29.97,29.94,10,10,10,15,6,21,0.00,1,,279